Terminal Aerodrome Forecast
Issued by NWS Hastings, NE

Home | Current Version | Previous Version | Text Only | Print | Product List | Glossary On
Versions: 1 2 3 4 5 6 7 8 9 10 11 12 13 14 15 16 17
000
FTUS45 KGID 281120
TAFEAR
TAF
KEAR 281120Z 2812/2912 13008KT P6SM SCT100
     FM281700 13012KT P6SM FEW150
     FM282100 14019G26KT P6SM SCT150
     FM290400 16020G26KT P6SM SCT150 WS010/19050KT
     FM290900 27013KT P6SM SCT250
      AMD LTD TO CLD VIS AND WIND=

USA.gov is the U.S. government's official web portal to all federal, state and local government web resources and services.